Time;durP1;ratioP1;P1;durP2;ratioP2;P2;SDS_P1;SDS_P2;PMS_P1;PMS_P2;Temp;Humidity;BMP_temperature;BMP_pressure;BME280_temperature;BME280_humidity;BME280_pressure;Samples;Min_cycle;Max_cycle;Signal;HPM_P1;HPM_P2
2021/11/23 00:01:58;;;;;;;16.40;10.50;;;;;;;2.36;92.24;97317.53;105321;1310;28871;-87
2021/11/23 00:04:29;;;;;;;13.20;9.20;;;;;;;2.33;91.92;97316.02;105372;1309;34376;-86
2021/11/23 00:07:00;;;;;;;12.90;9.40;;;;;;;2.29;91.56;97313.80;105333;1315;28956;-87
2021/11/23 00:09:33;;;;;;;13.10;7.90;;;;;;;2.26;91.58;97319.61;105426;1316;30418;-87
2021/11/23 00:12:05;;;;;;;11.40;8.10;;;;;;;2.22;91.13;97323.75;105445;1314;29251;-86
2021/11/23 00:14:36;;;;;;;12.10;8.60;;;;;;;2.19;91.02;97327.91;105321;1309;42767;-87
2021/11/23 00:17:08;;;;;;;10.30;7.70;;;;;;;2.16;90.89;97328.25;105322;1309;40689;-86
2021/11/23 00:19:39;;;;;;;13.10;8.70;;;;;;;2.14;90.94;97331.52;105320;1310;38270;-86
2021/11/23 00:22:10;;;;;;;12.30;8.20;;;;;;;2.12;90.78;97336.20;105358;1309;26445;-87
2021/11/23 00:24:42;;;;;;;12.70;8.80;;;;;;;2.09;90.51;97336.23;105359;1309;26789;-87
2021/11/23 00:27:13;;;;;;;11.50;7.50;;;;;;;2.07;90.59;97337.29;105333;1309;29719;-87
2021/11/23 00:29:44;;;;;;;14.30;7.80;;;;;;;2.07;90.48;97343.36;105334;1310;28762;-87
2021/11/23 00:32:15;;;;;;;13.10;8.70;;;;;;;2.05;90.32;97343.38;105310;1310;31088;-86
2021/11/23 00:34:46;;;;;;;12.00;8.20;;;;;;;1.99;90.26;97338.29;105261;1315;27530;-87
2021/11/23 00:37:23;;;;;;;12.30;8.20;;;;;;;1.93;90.09;97338.77;105349;1310;27376;-87
2021/11/23 00:39:54;;;;;;;13.70;8.30;;;;;;;1.89;89.93;97331.31;105285;1309;27658;-86
2021/11/23 00:42:25;;;;;;;11.70;8.40;;;;;;;1.86;89.96;97339.65;105290;1315;26589;-87
2021/11/23 00:44:56;;;;;;;13.40;7.40;;;;;;;1.85;90.10;97348.86;105355;1313;28431;-87
2021/11/23 00:47:27;;;;;;;9.40;5.70;;;;;;;1.81;89.94;97346.80;105318;1310;29813;-86
2021/11/23 00:49:59;;;;;;;12.90;8.40;;;;;;;1.75;89.41;97336.89;105326;1310;32326;-86
2021/11/23 00:52:30;;;;;;;10.80;7.10;;;;;;;1.70;89.42;97337.92;105314;1309;29225;-87
2021/11/23 00:55:01;;;;;;;10.00;6.90;;;;;;;1.67;89.52;97340.98;105415;1310;27754;-87
2021/11/23 00:57:33;;;;;;;11.80;8.00;;;;;;;1.65;89.22;97345.55;105415;1315;28176;-87
2021/11/23 01:00:06;;;;;;;10.90;6.50;;;;;;;1.63;89.60;97349.00;105368;1309;31562;-87
2021/11/23 01:02:37;;;;;;;12.70;6.60;;;;;;;1.59;88.54;97349.30;105351;1313;28679;-86
2021/11/23 01:05:09;;;;;;;10.10;6.70;;;;;;;1.57;88.58;97348.42;105315;1311;27868;-86
2021/11/23 01:07:40;;;;;;;10.70;6.60;;;;;;;1.55;88.53;97343.48;105344;1313;27292;-86
2021/11/23 01:10:12;;;;;;;11.20;6.50;;;;;;;1.53;88.41;97345.15;105316;1313;29263;-87
2021/11/23 01:12:43;;;;;;;9.10;5.70;;;;;;;1.53;88.17;97345.75;105291;1309;26632;-87
2021/11/23 01:15:17;;;;;;;12.10;6.60;;;;;;;1.54;88.29;97356.09;105312;1309;26756;-87
2021/11/23 01:17:48;;;;;;;8.00;5.90;;;;;;;1.55;88.03;97357.52;105355;1309;31344;-87
2021/11/23 01:20:19;;;;;;;10.80;6.20;;;;;;;1.52;87.84;97357.02;105299;1309;30641;-87
2021/11/23 01:22:51;;;;;;;9.40;5.70;;;;;;;1.53;87.73;97363.97;105322;1314;28776;-87
2021/11/23 01:25:22;;;;;;;11.70;6.60;;;;;;;1.53;87.59;97358.53;105308;1314;29813;-87
2021/11/23 01:27:53;;;;;;;8.60;5.60;;;;;;;1.53;87.62;97360.11;105270;1313;28859;-87
2021/11/23 01:30:25;;;;;;;9.50;5.60;;;;;;;1.53;87.28;97368.30;105327;1311;29261;-86
2021/11/23 01:32:56;;;;;;;9.90;5.80;;;;;;;1.52;87.18;97370.52;105370;1309;27939;-87
2021/11/23 01:35:27;;;;;;;8.90;5.80;;;;;;;1.50;86.86;97366.95;105346;1310;26699;-87
2021/11/23 01:37:58;;;;;;;7.50;5.20;;;;;;;1.48;86.49;97365.74;105272;1315;27149;-87
2021/11/23 01:40:29;;;;;;;7.70;4.80;;;;;;;1.46;86.37;97370.90;105306;1310;28116;-87
2021/11/23 01:43:05;;;;;;;8.20;5.60;;;;;;;1.44;86.42;97371.21;105385;1315;28701;-87
2021/11/23 01:45:37;;;;;;;6.80;4.60;;;;;;;1.41;86.18;97367.92;105325;1314;27165;-86
2021/11/23 01:48:10;;;;;;;8.70;4.40;;;;;;;1.41;85.55;97370.49;105295;1309;40169;-87
2021/11/23 01:50:41;;;;;;;8.50;5.20;;;;;;;1.42;85.42;97367.96;105310;1310;28726;-87
2021/11/23 01:53:12;;;;;;;7.90;4.60;;;;;;;1.42;85.55;97358.56;105289;1313;32928;-87
2021/11/23 01:55:43;;;;;;;7.30;4.60;;;;;;;1.42;85.48;97362.02;105268;1310;27003;-86
2021/11/23 01:58:16;;;;;;;8.90;5.50;;;;;;;1.38;85.49;97365.65;105342;1309;29878;-87
2021/11/23 02:00:47;;;;;;;10.70;5.30;;;;;;;1.33;85.16;97364.02;105333;1310;33575;-87
2021/11/23 02:03:19;;;;;;;9.80;5.90;;;;;;;1.25;85.36;97362.21;105339;1310;28753;-87
2021/11/23 02:05:50;;;;;;;10.50;5.10;;;;;;;1.14;85.61;97357.98;105367;1310;30383;-86
2021/11/23 02:08:21;;;;;;;8.90;5.60;;;;;;;1.12;85.65;97358.33;105275;1309;29578;-87
2021/11/23 02:10:52;;;;;;;8.50;4.80;;;;;;;1.10;85.41;97356.16;105230;1313;32369;-87
2021/11/23 02:13:23;;;;;;;9.30;5.40;;;;;;;1.05;85.51;97359.58;105325;1314;26424;-86
2021/11/23 02:15:56;;;;;;;8.60;5.00;;;;;;;1.02;85.38;97358.09;105107;1307;335661;-86
2021/11/23 02:18:29;;;;;;;10.20;5.50;;;;;;;0.99;85.17;97365.48;105318;1314;28705;-86
2021/11/23 02:21:00;;;;;;;8.50;5.40;;;;;;;0.95;85.48;97363.20;105253;1314;34758;-86
2021/11/23 02:23:31;;;;;;;7.90;5.30;;;;;;;0.91;85.17;97358.31;105396;1310;29405;-86
2021/11/23 02:26:02;;;;;;;11.30;6.00;;;;;;;0.92;85.00;97361.60;105373;1309;29816;-87
2021/11/23 02:28:33;;;;;;;10.90;5.90;;;;;;;0.92;84.99;97369.99;105355;1309;37312;-86
2021/11/23 02:31:06;;;;;;;11.60;5.90;;;;;;;0.93;85.12;97366.59;105372;1310;29044;-87
2021/11/23 02:33:38;;;;;;;9.50;6.10;;;;;;;0.96;85.27;97371.73;105352;1309;27654;-87
2021/11/23 02:36:11;;;;;;;8.70;5.80;;;;;;;0.97;84.52;97365.17;105309;1311;28708;-87
2021/11/23 02:38:42;;;;;;;10.00;6.60;;;;;;;0.97;84.47;97371.76;105343;1310;27649;-86
2021/11/23 02:41:15;;;;;;;11.20;5.60;;;;;;;0.97;84.31;97379.42;105354;1310;40882;-86
2021/11/23 02:43:47;;;;;;;12.20;6.80;;;;;;;0.98;84.39;97387.31;105327;1310;29207;-86
2021/11/23 02:46:18;;;;;;;13.30;6.20;;;;;;;0.99;84.34;97391.03;105351;1309;28597;-86
2021/11/23 02:48:49;;;;;;;11.80;6.30;;;;;;;1.00;84.21;97386.45;105268;1310;26680;-86
2021/11/23 02:51:20;;;;;;;10.50;6.50;;;;;;;0.99;84.06;97387.70;105381;1310;27651;-86
2021/11/23 02:53:52;;;;;;;11.00;7.00;;;;;;;1.00;84.08;97386.65;105354;1309;28493;-86
2021/11/23 02:56:23;;;;;;;12.00;7.60;;;;;;;1.01;84.25;97387.41;105327;1313;27569;-86
2021/11/23 02:58:55;;;;;;;11.40;7.00;;;;;;;1.02;84.49;97388.77;105323;1311;26361;-86
2021/11/23 03:01:28;;;;;;;11.40;7.20;;;;;;;1.01;84.52;97386.37;105339;1314;27790;-86
2021/11/23 03:03:59;;;;;;;13.10;6.90;;;;;;;1.02;84.39;97385.27;105344;1309;27867;-86
2021/11/23 03:06:30;;;;;;;10.30;6.50;;;;;;;1.02;84.51;97384.12;105393;1309;27669;-86
2021/11/23 03:09:01;;;;;;;11.10;6.90;;;;;;;1.07;84.72;97385.28;105362;1314;30279;-86
2021/11/23 03:11:32;;;;;;;10.60;6.80;;;;;;;1.08;84.25;97385.36;105416;1308;27900;-86
2021/11/23 03:14:03;;;;;;;11.40;6.70;;;;;;;1.08;84.02;97390.59;105403;1310;29380;-86
2021/11/23 03:16:34;;;;;;;10.90;7.10;;;;;;;1.07;84.09;97390.70;105386;1313;28751;-84
2021/11/23 03:19:06;;;;;;;11.70;7.30;;;;;;;1.07;83.74;97393.84;105306;1310;36888;-85
2021/11/23 03:21:37;;;;;;;13.00;6.90;;;;;;;1.07;83.56;97390.71;105353;1310;27092;-87
2021/11/23 03:24:08;;;;;;;11.50;6.50;;;;;;;1.05;83.36;97388.14;105305;1309;26767;-87
2021/11/23 03:26:39;;;;;;;12.40;7.10;;;;;;;1.04;83.16;97385.89;105345;1312;27080;-87
2021/11/23 03:29:10;;;;;;;12.10;7.30;;;;;;;1.02;83.41;97389.02;105349;1309;29246;-86
2021/11/23 03:31:41;;;;;;;12.00;7.60;;;;;;;1.03;83.58;97386.02;105323;1309;28083;-86
2021/11/23 03:34:14;;;;;;;12.80;7.60;;;;;;;1.01;83.30;97378.75;105285;1311;29270;-86
2021/11/23 03:36:45;;;;;;;11.40;7.10;;;;;;;1.00;83.46;97386.09;105344;1309;31815;-86
2021/11/23 03:39:17;;;;;;;9.00;6.10;;;;;;;1.00;83.24;97387.66;105323;1311;29436;-86
2021/11/23 03:41:48;;;;;;;9.60;6.20;;;;;;;0.99;83.24;97387.66;105248;1313;30668;-86
2021/11/23 03:44:19;;;;;;;13.70;6.20;;;;;;;0.99;82.96;97390.79;105322;1309;28969;-86
2021/11/23 03:46:50;;;;;;;10.10;6.10;;;;;;;1.01;83.19;97388.66;105289;1309;27075;-86
2021/11/23 03:49:21;;;;;;;8.50;5.40;;;;;;;1.01;82.79;97389.86;105315;1315;37149;-88
2021/11/23 03:51:52;;;;;;;8.80;5.60;;;;;;;1.01;83.07;97386.02;105349;1311;26567;-87
2021/11/23 03:54:23;;;;;;;7.90;4.70;;;;;;;1.03;82.55;97382.72;105386;1310;28382;-87
2021/11/23 03:56:54;;;;;;;9.70;5.30;;;;;;;1.04;82.54;97387.38;105367;1310;30949;-87
2021/11/23 03:59:25;;;;;;;10.10;5.20;;;;;;;1.05;82.14;97390.91;105388;1310;31255;-87
2021/11/23 04:01:56;;;;;;;9.40;4.90;;;;;;;1.06;82.03;97394.41;105372;1309;27299;-87
2021/11/23 04:04:28;;;;;;;7.60;4.90;;;;;;;1.04;81.68;97389.86;105311;1310;30120;-87
2021/11/23 04:06:59;;;;;;;9.70;5.30;;;;;;;1.05;81.36;97394.00;105331;1309;29161;-87
2021/11/23 04:09:30;;;;;;;7.90;5.40;;;;;;;1.04;81.32;97401.08;105404;1311;30487;-87
2021/11/23 04:12:01;;;;;;;7.70;5.10;;;;;;;1.02;81.41;97398.73;105343;1316;28308;-87
2021/11/23 04:14:33;;;;;;;9.20;5.50;;;;;;;1.02;80.93;97396.52;105367;1310;27865;-87
2021/11/23 04:17:04;;;;;;;7.80;5.00;;;;;;;1.02;81.15;97396.70;105444;1310;28715;-86
2021/11/23 04:19:36;;;;;;;8.60;4.90;;;;;;;1.01;81.49;97393.16;105308;1310;35655;-87
2021/11/23 04:22:08;;;;;;;10.40;6.20;;;;;;;0.99;81.41;97395.84;105340;1310;26755;-86
2021/11/23 04:24:39;;;;;;;10.00;5.80;;;;;;;0.97;81.59;97397.71;105335;1309;28216;-87
2021/11/23 04:27:10;;;;;;;10.30;5.30;;;;;;;0.97;81.57;97396.54;105295;1316;28777;-87
2021/11/23 04:29:41;;;;;;;9.00;5.50;;;;;;;0.94;81.51;97399.63;105332;1310;26068;-87
2021/11/23 04:32:12;;;;;;;6.30;4.70;;;;;;;0.94;81.43;97397.71;105315;1314;28582;-87
2021/11/23 04:34:43;;;;;;;8.80;5.60;;;;;;;0.92;80.73;97392.48;105381;1310;27695;-87
2021/11/23 04:37:15;;;;;;;10.90;6.50;;;;;;;0.92;80.92;97393.85;105362;1310;29509;-87
2021/11/23 04:39:49;;;;;;;9.90;6.10;;;;;;;0.91;81.12;97398.15;105300;1310;28557;-87
2021/11/23 04:42:20;;;;;;;9.00;5.20;;;;;;;0.90;80.77;97397.27;105343;1311;30562;-87
2021/11/23 04:44:51;;;;;;;11.40;6.60;;;;;;;0.87;80.59;97394.02;105342;1309;28768;-87
2021/11/23 04:47:22;;;;;;;7.50;5.00;;;;;;;0.83;80.36;97393.34;105321;1309;28045;-87
2021/11/23 04:49:53;;;;;;;9.30;5.60;;;;;;;0.81;79.97;97391.58;105326;1309;27491;-87
2021/11/23 04:52:23;;;;;;;12.00;6.30;;;;;;;0.82;79.95;97386.80;105314;1310;28080;-87
2021/11/23 04:54:56;;;;;;;11.00;6.70;;;;;;;0.80;79.93;97385.46;105362;1311;31599;-87
2021/11/23 04:57:27;;;;;;;8.70;5.90;;;;;;;0.78;80.01;97384.70;105333;1312;27061;-87
2021/11/23 04:59:58;;;;;;;9.60;5.30;;;;;;;0.77;80.00;97387.02;105342;1314;26354;-87
2021/11/23 05:02:29;;;;;;;11.60;6.40;;;;;;;0.76;80.17;97393.09;105314;1311;28390;-87
2021/11/23 05:05:00;;;;;;;9.50;6.20;;;;;;;0.75;80.49;97395.70;105427;1311;27677;-87
2021/11/23 05:07:31;;;;;;;8.10;4.60;;;;;;;0.74;80.50;97390.96;105437;1310;27366;-87
2021/11/23 05:10:02;;;;;;;10.70;5.40;;;;;;;0.73;80.03;97385.66;105428;1311;33203;-87
2021/11/23 05:12:33;;;;;;;9.90;4.20;;;;;;;0.72;79.55;97384.27;105450;1310;27440;-87
2021/11/23 05:15:05;;;;;;;7.50;4.30;;;;;;;0.72;79.17;97388.15;105388;1314;27355;-87
2021/11/23 05:17:37;;;;;;;11.60;5.40;;;;;;;0.69;79.19;97388.04;105317;1312;28788;-86
2021/11/23 05:20:10;;;;;;;13.80;7.20;;;;;;;0.68;79.18;97387.87;105393;1309;27565;-87
2021/11/23 05:22:42;;;;;;;9.60;5.80;;;;;;;0.67;79.25;97392.05;105325;1314;27500;-87
2021/11/23 05:25:15;;;;;;;10.70;6.60;;;;;;;0.66;79.52;97395.70;105332;1311;27340;-87
2021/11/23 05:27:47;;;;;;;8.90;5.10;;;;;;;0.64;79.58;97391.48;105360;1315;27742;-87
2021/11/23 05:30:17;;;;;;;11.40;6.70;;;;;;;0.64;79.32;97392.98;105307;1311;29084;-87
2021/11/23 05:32:48;;;;;;;11.80;6.20;;;;;;;0.61;78.79;97392.52;105344;1310;27022;-87
2021/11/23 05:35:19;;;;;;;11.80;7.00;;;;;;;0.58;78.87;97394.33;105346;1313;29396;-87
2021/11/23 05:37:51;;;;;;;7.40;4.90;;;;;;;0.57;78.98;97392.84;105369;1312;28977;-87
2021/11/23 05:40:23;;;;;;;8.50;5.30;;;;;;;0.58;78.84;97395.81;105307;1314;36037;-87
2021/11/23 05:42:54;;;;;;;11.30;7.50;;;;;;;0.56;79.05;97391.98;105340;1316;32384;-87
2021/11/23 05:45:25;;;;;;;11.30;7.00;;;;;;;0.56;79.30;97394.40;105339;1311;27704;-87
2021/11/23 05:47:56;;;;;;;12.60;6.90;;;;;;;0.56;79.77;97396.81;105349;1311;27870;-87
2021/11/23 05:50:27;;;;;;;13.30;6.60;;;;;;;0.54;79.52;97393.41;105404;1310;26484;-87
2021/11/23 05:52:58;;;;;;;9.00;4.90;;;;;;;0.53;79.21;97393.96;105352;1313;28085;-87
2021/11/23 05:55:30;;;;;;;9.50;5.80;;;;;;;0.52;79.40;97388.98;105370;1313;25898;-87
2021/11/23 05:58:02;;;;;;;11.90;6.90;;;;;;;0.51;79.24;97394.73;105357;1309;29358;-87
2021/11/23 06:00:33;;;;;;;10.50;6.90;;;;;;;0.51;79.46;97407.57;105410;1315;29951;-86
2021/11/23 06:03:04;;;;;;;12.00;7.30;;;;;;;0.54;79.85;97413.15;105426;1311;26180;-87
2021/11/23 06:05:35;;;;;;;9.30;6.20;;;;;;;0.56;80.42;97411.48;105392;1311;27051;-86
2021/11/23 06:08:06;;;;;;;11.90;6.60;;;;;;;0.56;80.16;97407.96;105348;1309;31464;-87
2021/11/23 06:10:38;;;;;;;10.60;5.70;;;;;;;0.56;80.09;97402.95;105340;1309;32059;-87
2021/11/23 06:13:10;;;;;;;12.40;7.40;;;;;;;0.56;80.30;97404.50;105338;1315;25830;-87
2021/11/23 06:15:45;;;;;;;14.30;7.50;;;;;;;0.55;80.27;97400.48;105333;1309;27761;-87
2021/11/23 06:18:17;;;;;;;6.90;4.80;;;;;;;0.55;80.39;97408.78;105360;1316;29211;-87
2021/11/23 06:20:51;;;;;;;12.60;6.60;;;;;;;0.56;80.31;97406.60;105351;1312;29738;-87
2021/11/23 06:23:23;;;;;;;15.60;5.90;;;;;;;0.55;80.29;97408.79;105327;1316;28599;-87
2021/11/23 06:25:57;;;;;;;10.50;6.50;;;;;;;0.54;80.20;97412.08;105347;1313;27934;-87
2021/11/23 06:28:29;;;;;;;13.20;8.90;;;;;;;0.54;80.02;97427.20;105455;1314;28383;-87
2021/11/23 06:31:00;;;;;;;12.50;7.10;;;;;;;0.56;80.59;97431.80;105331;1313;28584;-87
2021/11/23 06:33:31;;;;;;;12.10;7.10;;;;;;;0.57;80.61;97441.05;105408;1315;28398;-87
2021/11/23 06:36:02;;;;;;;14.20;7.20;;;;;;;0.56;80.31;97448.14;105391;1309;27711;-87
2021/11/23 06:38:33;;;;;;;17.20;12.40;;;;;;;0.56;80.01;97452.68;105416;1311;28184;-87
2021/11/23 06:41:04;;;;;;;13.10;8.40;;;;;;;0.58;80.45;97451.13;105421;1310;28130;-87
2021/11/23 06:43:36;;;;;;;12.30;7.40;;;;;;;0.59;80.02;97454.42;105321;1310;28770;-87
2021/11/23 06:46:07;;;;;;;11.60;6.20;;;;;;;0.60;80.04;97462.52;105325;1309;26012;-86
2021/11/23 06:48:38;;;;;;;7.80;4.50;;;;;;;0.62;79.95;97461.09;105356;1307;27575;-87
2021/11/23 06:51:09;;;;;;;20.10;11.00;;;;;;;0.62;79.52;97463.45;105376;1313;27037;-87
2021/11/23 06:53:40;;;;;;;19.30;11.90;;;;;;;0.63;79.30;97461.45;105308;1315;28916;-87
2021/11/23 06:56:11;;;;;;;15.30;8.10;;;;;;;0.64;79.36;97472.29;105336;1314;27183;-87
2021/11/23 06:58:42;;;;;;;36.20;16.40;;;;;;;0.64;78.85;97475.86;105346;1313;27513;-87
2021/11/23 07:01:13;;;;;;;24.30;9.30;;;;;;;0.63;78.29;97472.85;105286;1309;46492;-87
2021/11/23 07:03:44;;;;;;;18.70;8.40;;;;;;;0.64;77.57;97475.23;105353;1309;28622;-87
2021/11/23 07:06:16;;;;;;;30.30;13.80;;;;;;;0.64;77.47;97477.63;105380;1310;29597;-88
2021/11/23 07:08:47;;;;;;;10.60;6.50;;;;;;;0.64;77.47;97481.36;105347;1310;27487;-87
2021/11/23 07:11:18;;;;;;;19.70;11.60;;;;;;;0.64;77.12;97472.96;105404;1312;26376;-87
2021/11/23 07:13:49;;;;;;;10.80;6.60;;;;;;;0.63;76.92;97474.63;105361;1311;27920;-87
2021/11/23 07:16:20;;;;;;;13.20;7.20;;;;;;;0.63;76.84;97472.21;105356;1309;27175;-86
2021/11/23 07:18:51;;;;;;;10.20;5.60;;;;;;;0.65;77.37;97472.61;105348;1309;31438;-86
2021/11/23 07:21:22;;;;;;;21.70;8.40;;;;;;;0.69;77.37;97468.86;105323;1309;28790;-85
2021/11/23 07:23:54;;;;;;;15.00;7.80;;;;;;;0.74;77.39;97468.93;105397;1313;30466;-86
2021/11/23 07:26:25;;;;;;;9.50;6.10;;;;;;;0.82;77.63;97478.47;105318;1313;26791;-86
2021/11/23 07:28:56;;;;;;;16.50;9.40;;;;;;;0.89;77.74;97478.46;105388;1313;27844;-86
2021/11/23 07:31:28;;;;;;;12.30;6.80;;;;;;;0.97;77.67;97480.19;105355;1315;27718;-86
2021/11/23 07:33:59;;;;;;;11.40;6.20;;;;;;;1.01;77.83;97476.21;105325;1311;29681;-86
2021/11/23 07:36:30;;;;;;;10.10;6.40;;;;;;;0.98;77.72;97473.27;105393;1313;28005;-86
2021/11/23 07:39:02;;;;;;;9.70;5.90;;;;;;;0.96;77.40;97467.39;105411;1312;27978;-86
2021/11/23 07:41:33;;;;;;;7.90;5.20;;;;;;;1.05;77.50;97467.11;105395;1315;30273;-85
2021/11/23 07:44:07;;;;;;;7.70;5.20;;;;;;;1.39;77.32;97466.98;105416;1315;30719;-86
2021/11/23 07:46:38;;;;;;;9.50;6.70;;;;;;;1.68;76.32;97464.20;105324;1310;29072;-86
2021/11/23 07:49:10;;;;;;;10.90;5.40;;;;;;;1.65;75.45;97468.98;105281;1313;29959;-85
2021/11/23 07:51:42;;;;;;;7.00;4.60;;;;;;;1.76;75.38;97465.97;105409;1313;29156;-86
2021/11/23 07:54:14;;;;;;;7.50;3.70;;;;;;;1.62;74.21;97461.54;105324;1315;31551;-86
2021/11/23 07:56:45;;;;;;;8.00;4.60;;;;;;;1.26;73.83;97470.70;105423;1315;30215;-87
2021/11/23 07:59:17;;;;;;;5.00;4.00;;;;;;;1.03;74.40;97465.54;105299;1316;30316;-88
2021/11/23 08:01:48;;;;;;;8.70;5.60;;;;;;;0.87;74.77;97470.50;105297;1315;28871;-87
2021/11/23 08:04:19;;;;;;;8.60;4.80;;;;;;;0.85;75.17;97469.94;105343;1309;31315;-87
2021/11/23 08:06:50;;;;;;;7.80;4.70;;;;;;;0.93;75.57;97476.17;105356;1312;30219;-88
2021/11/23 08:09:21;;;;;;;8.10;4.50;;;;;;;0.89;75.14;97476.50;105361;1316;28983;-88
2021/11/23 08:11:52;;;;;;;7.20;3.90;;;;;;;1.02;74.98;97476.45;105339;1313;28761;-86
2021/11/23 08:14:25;;;;;;;5.60;3.60;;;;;;;1.21;74.82;97480.45;105305;1313;29503;-86
2021/11/23 08:16:57;;;;;;;7.00;4.50;;;;;;;1.34;74.63;97487.27;105351;1310;28131;-87
2021/11/23 08:19:28;;;;;;;6.00;3.10;;;;;;;1.56;74.54;97481.80;105301;1309;31540;-87
2021/11/23 08:21:59;;;;;;;5.20;3.50;;;;;;;1.71;73.66;97478.48;105308;1311;30318;-87
2021/11/23 08:24:30;;;;;;;3.00;1.80;;;;;;;1.74;72.68;97469.55;105340;1311;31748;-87
2021/11/23 08:27:01;;;;;;;4.10;2.80;;;;;;;1.71;72.05;97465.42;105331;1312;30578;-88
2021/11/23 08:29:32;;;;;;;5.00;2.70;;;;;;;1.74;72.31;97468.44;105341;1316;26407;-86
2021/11/23 08:32:04;;;;;;;5.50;3.30;;;;;;;1.76;72.22;97459.95;105377;1311;30678;-87
2021/11/23 08:34:35;;;;;;;4.50;2.60;;;;;;;1.83;72.27;97462.61;105419;1310;28808;-86
2021/11/23 08:37:06;;;;;;;6.00;3.30;;;;;;;1.85;72.06;97461.61;105351;1309;27315;-86
2021/11/23 08:39:37;;;;;;;6.20;3.80;;;;;;;1.88;72.76;97459.86;105330;1315;27647;-86
2021/11/23 08:42:09;;;;;;;4.00;3.10;;;;;;;2.01;72.49;97448.04;105317;1312;27863;-86
2021/11/23 08:44:40;;;;;;;5.60;3.90;;;;;;;1.83;71.41;97452.41;105346;1316;29057;-86
2021/11/23 08:47:12;;;;;;;4.50;3.50;;;;;;;1.68;71.88;97466.78;105328;1316;26876;-86
2021/11/23 08:49:43;;;;;;;4.90;3.30;;;;;;;1.67;72.05;97467.81;105344;1313;26492;-86
2021/11/23 08:52:15;;;;;;;4.60;2.70;;;;;;;1.74;72.56;97471.93;105350;1311;28772;-86
2021/11/23 08:54:47;;;;;;;5.40;3.60;;;;;;;1.72;71.53;97479.17;105315;1315;26748;-86
2021/11/23 08:57:18;;;;;;;4.10;2.90;;;;;;;1.68;71.63;97482.81;105337;1312;28741;-85
2021/11/23 08:59:50;;;;;;;5.80;3.40;;;;;;;1.64;71.88;97492.70;105331;1311;28210;-86
2021/11/23 09:02:22;;;;;;;4.40;3.10;;;;;;;1.59;71.12;97482.21;105363;1316;25671;-86
2021/11/23 09:04:53;;;;;;;4.80;3.20;;;;;;;1.55;71.25;97486.83;105365;1312;28766;-86
2021/11/23 09:07:24;;;;;;;5.10;3.40;;;;;;;1.57;71.28;97489.86;105363;1313;25851;-86
2021/11/23 09:09:55;;;;;;;3.20;2.80;;;;;;;1.60;70.97;97487.92;105389;1312;26199;-86
2021/11/23 09:12:26;;;;;;;4.70;2.70;;;;;;;1.65;71.07;97489.85;105356;1313;31897;-86
2021/11/23 09:14:57;;;;;;;3.40;2.70;;;;;;;1.67;70.80;97496.77;105376;1313;30333;-86
2021/11/23 09:17:28;;;;;;;3.50;2.00;;;;;;;1.81;70.99;97500.61;105347;1316;29638;-86
2021/11/23 09:19:59;;;;;;;3.70;2.30;;;;;;;1.91;70.44;97495.73;105346;1312;29577;-86
2021/11/23 09:22:31;;;;;;;4.30;3.00;;;;;;;1.95;69.72;97499.15;105377;1316;28474;-86
2021/11/23 09:25:02;;;;;;;3.60;2.50;;;;;;;1.97;68.99;97499.02;105433;1315;25897;-87
2021/11/23 09:27:33;;;;;;;3.40;1.90;;;;;;;2.04;69.37;97496.02;105411;1313;29857;-86
2021/11/23 09:30:05;;;;;;;5.10;2.90;;;;;;;2.08;68.86;97502.16;105395;1314;30980;-87
2021/11/23 09:32:37;;;;;;;4.40;3.20;;;;;;;2.16;69.33;97506.69;105358;1313;27737;-85
2021/11/23 09:35:13;;;;;;;4.40;2.90;;;;;;;2.29;69.31;97505.14;105344;1315;28366;-86
2021/11/23 09:37:44;;;;;;;3.60;2.20;;;;;;;2.36;69.32;97506.58;105357;1312;25853;-86
2021/11/23 09:40:17;;;;;;;2.10;1.90;;;;;;;2.50;69.61;97501.39;105343;1311;27819;-86
2021/11/23 09:42:50;;;;;;;2.30;1.60;;;;;;;2.53;68.02;97491.77;105344;1313;28057;-85
2021/11/23 09:45:22;;;;;;;2.60;1.70;;;;;;;2.46;67.75;97482.33;105328;1315;30687;-85
2021/11/23 09:47:53;;;;;;;2.90;1.80;;;;;;;2.44;67.25;97479.15;105343;1315;30370;-86
2021/11/23 09:50:24;;;;;;;2.90;1.30;;;;;;;2.35;67.09;97471.30;105330;1312;26940;-86
2021/11/23 09:52:56;;;;;;;2.20;1.40;;;;;;;2.37;67.44;97476.29;105359;1312;28213;-86
2021/11/23 09:55:27;;;;;;;3.50;2.40;;;;;;;2.44;67.63;97471.06;105356;1311;27817;-86
2021/11/23 09:57:58;;;;;;;4.00;1.60;;;;;;;2.55;67.63;97473.20;105242;1315;28888;-85
2021/11/23 10:00:33;;;;;;;2.90;1.70;;;;;;;2.55;66.79;97463.23;105344;1314;26234;-86
2021/11/23 10:03:10;;;;;;;2.50;1.50;;;;;;;2.53;67.14;97465.27;105418;1312;29963;-86
2021/11/23 10:05:44;;;;;;;3.70;1.30;;;;;;;2.58;66.88;97457.65;105308;1312;28868;-86
2021/11/23 10:08:18;;;;;;;4.70;2.30;;;;;;;2.57;66.93;97461.45;105289;1315;29659;-86
2021/11/23 10:10:52;;;;;;;3.90;2.60;;;;;;;2.68;67.58;97457.34;105350;1316;39075;-86
2021/11/23 10:13:24;;;;;;;3.10;1.70;;;;;;;2.78;67.33;97452.30;105325;1315;28471;-86
2021/11/23 10:15:56;;;;;;;3.40;1.90;;;;;;;2.80;66.33;97449.52;105184;1307;219819;-86
2021/11/23 10:18:28;;;;;;;2.50;1.50;;;;;;;2.71;66.74;97451.64;105332;1313;27006;-86
2021/11/23 10:21:03;;;;;;;3.80;1.80;;;;;;;2.88;66.96;97453.59;105316;1313;27074;-86
2021/11/23 10:23:40;;;;;;;4.10;2.00;;;;;;;2.97;67.66;97460.36;105333;1316;26437;-86
2021/11/23 10:26:15;;;;;;;3.80;2.20;;;;;;;3.16;67.40;97457.04;105305;1315;27738;-86
2021/11/23 10:28:49;;;;;;;6.90;2.60;;;;;;;3.13;66.80;97458.23;105279;1310;31522;-86
2021/11/23 10:31:21;;;;;;;2.60;1.50;;;;;;;3.24;67.50;97449.09;105325;1315;29997;-86
2021/11/23 10:34:00;;;;;;;4.20;2.20;;;;;;;3.31;66.29;97443.65;105331;1316;31523;-86
2021/11/23 10:36:34;;;;;;;2.90;1.90;;;;;;;3.31;66.66;97434.54;105370;1312;29832;-86
2021/11/23 10:39:11;;;;;;;2.70;2.00;;;;;;;3.51;67.24;97433.84;105348;1310;30795;-86
2021/11/23 10:41:44;;;;;;;2.40;1.80;;;;;;;3.62;66.91;97431.44;105322;1313;31442;-86
2021/11/23 10:44:23;;;;;;;5.10;2.10;;;;;;;3.62;66.50;97430.04;105216;1308;29445;-86
2021/11/23 10:46:57;;;;;;;3.50;2.10;;;;;;;3.57;65.70;97426.38;105405;1316;31848;-87
2021/11/23 10:49:33;;;;;;;2.60;2.00;;;;;;;3.47;65.41;97420.31;105392;1312;27906;-87
2021/11/23 10:52:06;;;;;;;2.40;1.50;;;;;;;3.38;65.03;97417.80;105381;1312;28263;-86
2021/11/23 10:54:37;;;;;;;3.90;1.60;;;;;;;3.32;64.58;97420.02;105343;1312;32786;-85
2021/11/23 10:57:10;;;;;;;3.30;2.00;;;;;;;3.34;64.67;97425.35;105315;1316;45544;-86
2021/11/23 10:59:42;;;;;;;2.60;1.70;;;;;;;3.54;65.39;97428.41;105333;1313;28192;-86
2021/11/23 11:02:14;;;;;;;2.40;1.60;;;;;;;3.79;65.83;97429.27;105262;1316;28957;-87
2021/11/23 11:04:46;;;;;;;1.90;1.50;;;;;;;4.00;64.81;97417.70;105298;1313;28536;-86
2021/11/23 11:07:20;;;;;;;3.40;1.70;;;;;;;4.08;64.62;97417.83;105308;1315;32257;-87
2021/11/23 11:09:51;;;;;;;3.50;2.20;;;;;;;4.03;63.86;97420.20;105334;1313;31717;-87
2021/11/23 11:12:22;;;;;;;2.90;1.70;;;;;;;3.89;63.66;97422.44;105324;1316;29318;-86
2021/11/23 11:14:56;;;;;;;2.90;1.40;;;;;;;3.86;63.97;97422.35;105295;1315;29772;-86
2021/11/23 11:17:29;;;;;;;3.40;1.70;;;;;;;3.81;62.99;97422.35;105316;1312;30477;-86
2021/11/23 11:20:00;;;;;;;3.70;1.60;;;;;;;3.81;63.11;97422.56;105318;1315;29144;-86
2021/11/23 11:22:31;;;;;;;2.80;1.30;;;;;;;3.71;62.62;97425.79;105407;1309;28130;-86
2021/11/23 11:25:12;;;;;;;3.20;1.70;;;;;;;3.68;62.64;97421.34;105390;1312;31090;-86
2021/11/23 11:27:47;;;;;;;3.10;1.90;;;;;;;3.70;61.75;97421.85;105299;1313;28740;-86
2021/11/23 11:30:25;;;;;;;1.30;0.90;;;;;;;3.70;61.65;97425.79;105327;1315;29392;-86
2021/11/23 11:33:11;;;;;;;1.70;1.30;;;;;;;3.77;61.74;97429.31;105342;1313;28906;-86
2021/11/23 11:35:44;;;;;;;1.80;1.10;;;;;;;3.68;61.21;97424.04;105241;1310;46884;-86
2021/11/23 11:38:43;;;;;;;3.10;1.40;;;;;;;3.55;61.27;97421.80;105307;1313;26197;-86
2021/11/23 11:41:44;;;;;;;4.10;1.50;;;;;;;3.50;61.37;97415.88;105278;1309;28208;-86
2021/11/23 11:44:20;;;;;;;2.30;1.20;;;;;;;3.40;61.49;97417.62;105248;1313;27704;-86
2021/11/23 11:47:05;;;;;;;0.80;0.70;;;;;;;3.37;61.68;97410.59;105306;1313;29503;-86
2021/11/23 11:49:53;;;;;;;2.70;1.50;;;;;;;3.38;61.27;97409.78;105304;1310;36673;-87
2021/11/23 11:52:26;;;;;;;2.50;1.30;;;;;;;3.36;60.98;97415.39;105347;1311;26252;-86